Date,TemperatureHighF,TemperatureAvgF,TemperatureLowF,DewpointHighF,DewpointAvgF,DewpointLowF,HumidityHigh,HumidityAvg,HumidityLow,PressureMaxIn,PressureMinIn,WindSpeedMaxMPH,WindSpeedAvgMPH,GustSpeedMaxMPH,PrecipitationSumIn
2013-11-1,72.4,65.9,60.0,64.0,60.0,48.0,97,82,59,29.75,29.53,13,2,30,0.08
2013-11-2,64.5,57.7,51.1,48.0,41.3,36.0,74,55,43,29.90,29.63,12,3,21,0.01
2013-11-3,60.5,51.0,45.8,44.0,38.2,35.0,76,63,45,30.27,29.90,16,1,17,0.00
2013-11-4,56.2,47.8,42.0,37.0,34.2,30.0,77,61,38,30.44,30.28,3,1,11,0.00
2013-11-5,56.5,47.3,39.3,46.0,36.3,30.0,83,66,44,30.48,30.35,5,0,6,0.00
2013-11-6,65.3,55.9,47.6,54.0,50.9,44.0,97,84,65,30.35,30.04,3,0,7,0.01
2013-11-7,64.2,54.7,46.7,57.0,45.1,31.0,96,72,43,30.07,29.90,16,3,25,0.01
2013-11-8,57.5,46.7,39.6,31.0,26.3,21.0,60,47,25,30.24,30.08,13,2,17,0.00
2013-11-9,56.6,46.7,37.5,37.0,30.6,25.0,71,55,38,30.29,30.11,5,0,7,0.00
2013-11-10,67.4,57.8,45.6,38.0,31.2,21.0,63,38,24,30.16,30.06,17,3,21,0.00
2013-11-11,59.6,49.4,39.6,33.0,27.9,24.0,63,45,28,30.26,30.05,6,1,13,0.00
2013-11-12,59.2,47.2,30.2,39.0,26.5,13.0,66,46,25,30.37,29.97,20,4,30,0.00
2013-11-13,48.5,36.0,27.4,22.0,16.3,12.0,59,46,30,30.47,30.35,9,1,18,0.00
2013-11-14,58.2,41.8,28.9,27.0,21.4,18.0,66,46,24,30.40,30.25,6,0,9,0.00
2013-11-15,51.2,44.5,35.9,46.0,31.6,20.0,97,63,40,30.25,30.13,3,0,4,0.03
2013-11-16,56.9,51.8,46.0,53.0,50.3,45.0,99,94,87,30.20,30.11,2,0,3,0.01
2013-11-17,58.8,55.7,53.2,57.0,54.7,52.0,99,96,87,30.13,29.79,3,0,4,0.31
2013-11-18,67.1,60.0,50.8,60.0,41.4,29.0,99,54,33,29.93,29.75,16,4,32,0.01
2013-11-19,55.7,48.3,43.2,31.0,26.0,21.0,57,42,31,30.19,29.91,9,2,20,0.00
2013-11-20,50.5,42.9,36.3,31.0,28.6,27.0,71,58,41,30.39,30.18,5,1,10,0.00
2013-11-21,48.2,45.7,43.1,47.0,39.3,30.0,98,79,60,30.42,30.31,3,0,6,0.08
2013-11-22,63.2,53.6,47.4,57.0,52.4,47.0,99,95,77,30.33,30.04,5,0,12,0.04
2013-11-23,62.0,52.7,37.4,55.0,40.3,20.0,81,64,42,30.15,30.00,16,4,23,0.01
2013-11-24,40.0,33.1,27.6,21.0,12.9,9.0,56,44,30,30.45,30.14,13,2,24,0.00
2013-11-25,38.0,31.6,24.7,23.0,12.8,7.0,68,47,34,30.50,30.27,4,0,7,0.00
2013-11-26,48.9,39.0,32.3,47.0,37.0,23.0,99,93,62,30.28,29.57,3,0,10,2.33
2013-11-27,49.1,36.2,27.9,46.0,26.8,15.0,88,69,55,30.13,29.51,21,7,38,0.03
2013-11-28,45.5,33.1,24.8,25.0,19.9,16.0,72,59,41,30.41,30.14,8,1,15,0.00
2013-11-29,53.8,40.2,30.1,28.0,24.1,21.0,79,55,33,30.53,30.40,3,0,6,0.00
2013-11-30,46.3,37.3,31.8,26.0,24.2,23.0,72,60,42,30.57,30.32,4,0,6,0.00